Wide Ruins, Arizona
Current Conditions -  °F | °C
As of 12:54 AM on Monday 26 Jan 2015 (Local Time) from KSJN Reporting Station
Clear Clear  
Wind Chill: 24°   Ceiling: Unl
Heat Index: 31°   Visibility: 10mi
Dew Point: 22°   Wind: 7mph
Humidity: 69%   Direction: 160°SSE
Pressure: 30.32"   Gusts: NA
Location:  34.9472°N, 109.473°W
Report Text: KSJN 260754Z AUTO 16006KT 10SM CLR M01/M06 A3032 RMK AO2 SLP251 T10061056
Loading
Personal Weather Stations






























Interactive Weather Map New forecast layout! Learn more

10-Day Weather Forecast

Advertisements
Track Severe Weather on mobile